createdAt,value
2017-11-06T00:02:00.898Z,79.20
2017-11-06T00:04:29.175Z,78.50
2017-11-06T00:06:56.710Z,78.40
2017-11-06T00:09:24.234Z,78.70
2017-11-06T00:11:52.529Z,79.00
2017-11-06T00:14:20.084Z,78.60
2017-11-06T00:16:47.623Z,78.20
2017-11-06T00:19:15.148Z,79.20
2017-11-06T00:21:42.721Z,78.70
2017-11-06T00:24:10.208Z,78.50
2017-11-06T00:26:37.693Z,78.40
2017-11-06T00:29:05.180Z,78.70
2017-11-06T00:31:33.458Z,79.00
2017-11-06T00:34:00.972Z,78.80
2017-11-06T00:36:28.576Z,78.80
2017-11-06T00:38:56.089Z,78.10
2017-11-06T00:41:23.629Z,78.10
2017-11-06T00:43:51.109Z,78.20
2017-11-06T00:46:19.456Z,78.10
2017-11-06T00:48:46.950Z,78.00
2017-11-06T00:51:14.525Z,78.20
2017-11-06T00:53:42.057Z,77.80
2017-11-06T00:56:09.616Z,78.00
2017-11-06T00:58:37.128Z,77.60
2017-11-06T01:01:04.640Z,77.80
2017-11-06T01:03:32.913Z,78.00
2017-11-06T01:06:00.418Z,77.90
2017-11-06T01:08:28.700Z,77.60
2017-11-06T01:10:57.014Z,77.90
2017-11-06T01:13:24.522Z,77.90
2017-11-06T01:15:52.005Z,78.00
2017-11-06T01:18:19.498Z,77.70
2017-11-06T01:20:47.005Z,77.60
2017-11-06T01:23:14.520Z,77.00
2017-11-06T01:25:42.006Z,77.40
2017-11-06T01:28:10.248Z,77.50
2017-11-06T01:30:37.729Z,77.50
2017-11-06T01:33:05.318Z,77.50
2017-11-06T01:35:32.986Z,76.80
2017-11-06T01:38:01.363Z,77.70
2017-11-06T01:40:29.754Z,77.40
2017-11-06T01:42:57.242Z,77.30
2017-11-06T01:45:25.106Z,77.70
2017-11-06T01:47:52.609Z,78.00
2017-11-06T01:50:20.085Z,78.20
2017-11-06T01:52:47.746Z,78.10
2017-11-06T01:55:16.081Z,77.80
2017-11-06T01:57:43.578Z,77.80
2017-11-06T02:00:11.085Z,77.70
2017-11-06T02:02:38.602Z,77.00
2017-11-06T02:05:06.454Z,76.70
2017-11-06T02:07:34.780Z,76.70
2017-11-06T02:10:02.410Z,76.60
2017-11-06T02:12:30.791Z,76.80
2017-11-06T02:14:59.057Z,77.20
2017-11-06T02:17:27.340Z,76.80
2017-11-06T02:19:55.620Z,77.10
2017-11-06T02:22:23.126Z,77.00
2017-11-06T02:24:50.620Z,77.00
2017-11-06T02:27:18.976Z,77.00
2017-11-06T02:29:46.475Z,77.20
2017-11-06T02:32:13.996Z,77.80
2017-11-06T02:34:41.478Z,77.00
2017-11-06T02:37:09.021Z,76.60
2017-11-06T02:39:36.634Z,76.30
2017-11-06T02:42:04.187Z,76.60
2017-11-06T02:44:31.710Z,77.10
2017-11-06T02:46:59.202Z,77.60
2017-11-06T02:49:26.734Z,77.00
2017-11-06T02:51:54.689Z,77.60
2017-11-06T02:54:22.203Z,76.60
2017-11-06T02:56:49.702Z,76.60
2017-11-06T02:59:17.222Z,76.60
2017-11-06T03:01:44.702Z,77.30
2017-11-06T03:04:12.224Z,76.30
2017-11-06T03:06:39.858Z,76.30
2017-11-06T03:09:07.365Z,76.80
2017-11-06T03:11:35.695Z,76.80
2017-11-06T03:14:04.053Z,77.00
2017-11-06T03:16:31.555Z,76.50
2017-11-06T03:18:59.176Z,76.70
2017-11-06T03:21:26.934Z,75.60
2017-11-06T03:23:54.553Z,75.80
2017-11-06T03:26:22.200Z,75.90
2017-11-06T03:28:49.761Z,76.40
2017-11-06T03:31:18.038Z,77.10
2017-11-06T03:33:45.634Z,77.10
2017-11-06T03:36:13.149Z,76.30
2017-11-06T03:38:41.741Z,76.00
2017-11-06T03:41:09.319Z,76.10
2017-11-06T03:43:37.580Z,76.80
2017-11-06T03:46:05.092Z,76.80
2017-11-06T03:48:32.608Z,76.20
2017-11-06T03:51:00.981Z,76.50
2017-11-06T03:53:28.626Z,76.50
2017-11-06T03:55:57.057Z,76.20
2017-11-06T03:58:24.574Z,76.20
2017-11-06T04:00:52.955Z,76.30
2017-11-06T04:03:20.477Z,76.30
2017-11-06T04:05:48.220Z,76.20
2017-11-06T04:08:15.722Z,76.20
2017-11-06T04:10:43.194Z,76.00
2017-11-06T04:13:10.704Z,75.50
2017-11-06T04:15:38.202Z,75.80
2017-11-06T04:18:06.480Z,75.50
2017-11-06T04:20:34.003Z,75.50
2017-11-06T04:23:01.544Z,74.90
2017-11-06T04:25:29.046Z,75.10
2017-11-06T04:27:56.581Z,75.10
2017-11-06T04:30:24.110Z,75.40
2017-11-06T04:32:51.621Z,75.50
2017-11-06T04:35:19.157Z,75.20
2017-11-06T04:37:46.724Z,74.30
2017-11-06T04:40:14.296Z,74.60
2017-11-06T04:42:41.817Z,74.60
2017-11-06T04:45:09.338Z,75.10
2017-11-06T04:47:37.001Z,74.80
2017-11-06T04:50:04.533Z,74.50
2017-11-06T04:52:32.011Z,74.10
2017-11-06T04:54:59.496Z,74.50
2017-11-06T04:57:27.028Z,74.70
2017-11-06T04:59:54.610Z,74.80
2017-11-06T05:02:22.104Z,75.50
2017-11-06T05:04:49.592Z,75.00
2017-11-06T05:07:17.501Z,74.30
2017-11-06T05:09:45.017Z,74.40
2017-11-06T05:12:12.544Z,74.70
2017-11-06T05:14:40.077Z,74.50
2017-11-06T05:17:07.589Z,75.00
2017-11-06T05:19:35.193Z,74.90
2017-11-06T05:22:02.853Z,74.40
2017-11-06T05:24:32.311Z,74.20
2017-11-06T05:26:59.948Z,74.30
2017-11-06T05:29:27.436Z,74.90
2017-11-06T05:31:54.965Z,74.80
2017-11-06T05:34:22.734Z,74.20
2017-11-06T05:36:50.229Z,74.50
2017-11-06T05:39:17.871Z,75.20
2017-11-06T05:41:45.430Z,75.20
2017-11-06T05:44:12.956Z,75.40
2017-11-06T05:46:40.495Z,75.60
2017-11-06T05:49:08.050Z,75.20
2017-11-06T05:51:36.932Z,74.90
2017-11-06T05:54:04.564Z,75.40
2017-11-06T05:56:32.114Z,75.70
2017-11-06T05:58:59.635Z,75.90
2017-11-06T06:01:27.150Z,75.40
2017-11-06T06:03:56.172Z,75.60
2017-11-06T06:06:23.692Z,76.10
2017-11-06T06:08:51.919Z,75.30
2017-11-06T06:11:19.425Z,75.10
2017-11-06T06:13:46.889Z,75.50
2017-11-06T06:16:14.417Z,75.20
2017-11-06T06:18:41.896Z,75.50
2017-11-06T06:21:09.412Z,75.70
2017-11-06T06:23:36.995Z,75.70
2017-11-06T06:26:04.473Z,75.50
2017-11-06T06:28:31.943Z,75.80
2017-11-06T06:30:59.493Z,75.90
2017-11-06T06:33:27.039Z,76.20
2017-11-06T06:35:54.581Z,76.00
2017-11-06T06:38:22.113Z,76.00
2017-11-06T06:40:49.636Z,76.20
2017-11-06T06:43:17.192Z,76.30
2017-11-06T06:45:44.729Z,75.90
2017-11-06T06:48:12.291Z,75.50
2017-11-06T06:50:39.826Z,75.70
2017-11-06T06:53:07.324Z,75.90
2017-11-06T06:55:34.838Z,75.70
2017-11-06T06:58:02.389Z,75.30
2017-11-06T07:00:30.093Z,74.90
2017-11-06T07:02:57.593Z,75.00
2017-11-06T07:05:25.129Z,75.00
2017-11-06T07:07:52.736Z,74.80
2017-11-06T07:10:21.014Z,74.30
2017-11-06T07:12:48.522Z,74.10
2017-11-06T07:15:16.029Z,73.90
2017-11-06T07:17:44.430Z,74.20
2017-11-06T07:20:11.917Z,74.10
2017-11-06T07:22:39.396Z,74.50
2017-11-06T07:25:06.911Z,74.00
2017-11-06T07:27:34.649Z,74.30
2017-11-06T07:30:02.174Z,74.50
2017-11-06T07:32:29.659Z,74.50
2017-11-06T07:34:57.262Z,74.60
2017-11-06T07:37:24.769Z,73.10
2017-11-06T07:39:52.277Z,73.00
2017-11-06T07:42:19.762Z,72.80
2017-11-06T07:44:47.250Z,72.50
2017-11-06T07:47:14.760Z,72.50
2017-11-06T07:49:42.273Z,72.80
2017-11-06T07:52:10.553Z,72.50
2017-11-06T07:54:38.859Z,73.10
2017-11-06T07:57:06.706Z,73.00
2017-11-06T07:59:34.260Z,73.00
2017-11-06T08:02:02.528Z,72.00
2017-11-06T08:04:30.065Z,72.00
2017-11-06T08:06:57.572Z,72.00
2017-11-06T08:09:25.047Z,71.70
2017-11-06T08:11:52.536Z,71.50
2017-11-06T08:14:20.057Z,70.80
2017-11-06T08:16:47.607Z,71.20
2017-11-06T08:19:15.121Z,70.70
2017-11-06T08:21:42.636Z,71.10
2017-11-06T08:24:10.240Z,70.80
2017-11-06T08:26:37.743Z,71.10
2017-11-06T08:29:05.240Z,70.90
2017-11-06T08:31:32.765Z,70.90
2017-11-06T08:34:00.273Z,70.90
2017-11-06T08:36:27.907Z,70.30
2017-11-06T08:38:55.579Z,70.20
2017-11-06T08:41:23.667Z,69.90
2017-11-06T08:43:51.281Z,70.00
2017-11-06T08:46:18.807Z,70.10
2017-11-06T08:48:47.118Z,69.80
2017-11-06T08:51:14.658Z,70.30
2017-11-06T08:53:42.190Z,70.00
2017-11-06T08:56:09.701Z,70.30
2017-11-06T08:58:37.234Z,69.60
2017-11-06T09:01:04.949Z,69.50
2017-11-06T09:03:32.569Z,69.30
2017-11-06T09:06:00.128Z,69.20
2017-11-06T09:08:27.843Z,69.30
2017-11-06T09:10:55.333Z,68.80
2017-11-06T09:13:23.053Z,69.10
2017-11-06T09:15:50.565Z,68.30
2017-11-06T09:18:18.990Z,68.00
2017-11-06T09:20:46.647Z,68.00
2017-11-06T09:23:14.178Z,68.60
2017-11-06T09:25:41.695Z,69.50
2017-11-06T09:28:09.269Z,69.70
2017-11-06T09:30:37.619Z,69.70
2017-11-06T09:33:05.159Z,69.70
2017-11-06T09:35:32.688Z,69.20
2017-11-06T09:38:00.950Z,68.30
2017-11-06T09:40:29.384Z,68.20
2017-11-06T09:42:57.105Z,67.30
2017-11-06T09:45:25.364Z,67.50
2017-11-06T09:47:52.872Z,67.40
2017-11-06T09:50:20.386Z,67.50
2017-11-06T09:52:47.884Z,67.00
2017-11-06T09:55:15.377Z,67.00
2017-11-06T09:57:43.677Z,67.40
2017-11-06T10:00:11.962Z,65.90
2017-11-06T10:02:40.233Z,66.20
2017-11-06T10:05:08.568Z,65.80
2017-11-06T10:07:36.064Z,65.80
2017-11-06T10:10:03.624Z,66.10
2017-11-06T10:12:31.139Z,66.40
2017-11-06T10:14:58.684Z,66.20
2017-11-06T10:17:26.209Z,66.60
2017-11-06T10:19:54.507Z,67.60
2017-11-06T10:22:22.786Z,68.30
2017-11-06T10:24:50.354Z,68.10
2017-11-06T10:27:17.885Z,68.20
2017-11-06T10:29:45.425Z,68.80
2017-11-06T10:32:14.465Z,69.50
2017-11-06T10:34:41.983Z,69.40
2017-11-06T10:37:09.522Z,69.20
2017-11-06T10:39:37.078Z,68.20
2017-11-06T10:42:04.610Z,67.60
2017-11-06T10:44:32.121Z,66.70
2017-11-06T10:46:59.721Z,67.10
2017-11-06T10:49:27.239Z,66.80
2017-11-06T10:51:54.808Z,66.60
2017-11-06T10:54:22.329Z,66.30
2017-11-06T10:56:49.880Z,66.50
2017-11-06T10:59:17.392Z,65.70
2017-11-06T11:01:45.108Z,66.00
2017-11-06T11:04:12.639Z,65.80
2017-11-06T11:06:40.918Z,65.10
2017-11-06T11:09:08.416Z,65.00
2017-11-06T11:11:35.914Z,65.00
2017-11-06T11:14:03.433Z,65.50
2017-11-06T11:16:30.949Z,65.70
2017-11-06T11:18:59.250Z,64.90
2017-11-06T11:21:26.769Z,64.80
2017-11-06T11:23:55.093Z,64.50
2017-11-06T11:26:22.602Z,64.50
2017-11-06T11:28:50.333Z,64.10
2017-11-06T11:31:18.623Z,63.90
2017-11-06T11:33:46.138Z,63.80
2017-11-06T11:36:13.636Z,64.50
2017-11-06T11:38:42.425Z,64.70
2017-11-06T11:41:09.918Z,65.20
2017-11-06T11:43:37.418Z,63.10
2017-11-06T11:46:04.933Z,63.00
2017-11-06T11:48:33.338Z,61.80
2017-11-06T11:51:00.871Z,61.80
2017-11-06T11:53:29.955Z,62.80
2017-11-06T11:55:57.473Z,62.80
2017-11-06T11:58:24.998Z,62.60
2017-11-06T12:00:53.451Z,62.90
2017-11-06T12:03:21.762Z,62.70
2017-11-06T12:05:50.067Z,64.10
2017-11-06T12:08:17.580Z,64.00
2017-11-06T12:10:45.980Z,64.50
2017-11-06T12:13:13.564Z,64.60
2017-11-06T12:15:41.318Z,64.50
2017-11-06T12:18:08.939Z,63.00
2017-11-06T12:20:36.470Z,64.10
2017-11-06T12:23:04.720Z,62.50
2017-11-06T12:25:32.349Z,62.50
2017-11-06T12:27:59.844Z,62.50
2017-11-06T12:30:27.405Z,63.00
2017-11-06T12:32:54.896Z,61.50
2017-11-06T12:35:22.522Z,62.10
2017-11-06T12:37:50.013Z,61.60
2017-11-06T12:40:17.504Z,61.30
2017-11-06T12:42:45.815Z,62.20
2017-11-06T12:45:13.336Z,62.80
2017-11-06T12:47:41.613Z,61.70
2017-11-06T12:50:09.094Z,61.60
2017-11-06T12:52:36.701Z,61.20
2017-11-06T12:55:04.190Z,61.10
2017-11-06T12:57:31.689Z,60.30
2017-11-06T12:59:59.254Z,60.10
2017-11-06T13:02:26.764Z,59.40
2017-11-06T13:04:54.261Z,59.00
2017-11-06T13:07:21.776Z,58.90
2017-11-06T13:09:49.307Z,58.70
2017-11-06T13:12:16.789Z,59.20
2017-11-06T13:14:44.300Z,58.00
2017-11-06T13:17:11.840Z,58.40
2017-11-06T13:19:39.356Z,58.70
2017-11-06T13:22:06.858Z,58.80
2017-11-06T13:24:34.359Z,58.40
2017-11-06T13:27:01.889Z,58.90
2017-11-06T13:29:29.377Z,59.20
2017-11-06T13:31:56.856Z,59.10
2017-11-06T13:34:24.366Z,59.30
2017-11-06T13:36:51.870Z,58.40
2017-11-06T13:39:19.378Z,57.80
2017-11-06T13:41:46.888Z,56.30
2017-11-06T13:44:14.424Z,55.60
2017-11-06T13:46:41.983Z,56.00
2017-11-06T13:49:09.465Z,56.50
2017-11-06T13:51:36.990Z,56.60
2017-11-06T13:54:04.651Z,57.50
2017-11-06T13:56:32.161Z,58.20
2017-11-06T13:58:59.668Z,58.40
2017-11-06T14:01:27.297Z,58.70
2017-11-06T14:03:55.617Z,58.60
2017-11-06T14:06:23.137Z,58.60
2017-11-06T14:08:50.684Z,59.00
2017-11-06T14:11:18.973Z,59.30
2017-11-06T14:13:47.263Z,59.60
2017-11-06T14:16:14.765Z,60.50
2017-11-06T14:18:42.297Z,61.20
2017-11-06T14:21:09.821Z,60.90
2017-11-06T14:23:37.354Z,61.30
2017-11-06T14:26:04.851Z,61.70
2017-11-06T14:28:32.365Z,61.30
2017-11-06T14:30:59.858Z,61.60
2017-11-06T14:33:28.114Z,61.10
2017-11-06T14:35:55.615Z,61.00
2017-11-06T14:38:24.590Z,61.90
2017-11-06T14:40:52.118Z,62.20
2017-11-06T14:43:19.624Z,62.40
2017-11-06T14:45:47.151Z,63.20
2017-11-06T14:48:15.430Z,63.00
2017-11-06T14:50:43.159Z,63.00
2017-11-06T14:53:10.999Z,63.70
2017-11-06T14:55:38.526Z,63.60
2017-11-06T14:58:06.180Z,63.80
2017-11-06T15:00:33.698Z,64.10
2017-11-06T15:03:01.222Z,64.40
2017-11-06T15:05:28.746Z,64.30
2017-11-06T15:07:59.433Z,64.60
2017-11-06T15:10:26.950Z,64.60
2017-11-06T15:12:54.437Z,64.40
2017-11-06T15:15:21.926Z,65.00
2017-11-06T15:17:49.552Z,65.70
2017-11-06T15:20:17.244Z,65.90
2017-11-06T15:22:44.782Z,66.40
2017-11-06T15:25:12.372Z,66.70
2017-11-06T15:27:45.012Z,67.50
2017-11-06T15:30:12.532Z,67.40
2017-11-06T15:32:40.043Z,67.90
2017-11-06T15:35:07.524Z,68.20
2017-11-06T15:37:35.252Z,68.20
2017-11-06T15:40:02.780Z,68.40
2017-11-06T15:42:30.312Z,68.40
2017-11-06T15:44:57.820Z,68.60
2017-11-06T15:47:25.385Z,68.90
2017-11-06T15:49:52.885Z,69.10
2017-11-06T15:52:20.437Z,68.60
2017-11-06T15:54:47.938Z,68.70
2017-11-06T15:57:15.454Z,68.10
2017-11-06T15:59:42.974Z,68.40
2017-11-06T16:02:10.587Z,68.60
2017-11-06T16:04:38.197Z,68.70
2017-11-06T16:07:05.810Z,69.20
2017-11-06T16:09:33.376Z,69.40
2017-11-06T16:12:00.872Z,69.70
2017-11-06T16:14:29.214Z,70.10
2017-11-06T16:16:56.824Z,70.70
2017-11-06T16:19:25.235Z,71.10
2017-11-06T16:21:52.750Z,71.10
2017-11-06T16:24:21.347Z,72.20
2017-11-06T16:26:49.569Z,72.80
2017-11-06T16:29:17.118Z,72.80
2017-11-06T16:31:44.628Z,73.40
2017-11-06T16:34:12.225Z,73.30
2017-11-06T16:36:39.753Z,73.90
2017-11-06T16:39:08.216Z,74.10
2017-11-06T16:41:35.780Z,74.00
2017-11-06T16:44:03.313Z,74.20
2017-11-06T16:46:30.829Z,74.60
2017-11-06T16:48:59.068Z,74.80
2017-11-06T16:51:26.770Z,75.10
2017-11-06T16:53:54.303Z,74.50
2017-11-06T16:56:21.820Z,74.80
2017-11-06T16:58:49.522Z,74.80
2017-11-06T17:01:17.210Z,75.20
2017-11-06T17:03:45.589Z,75.10
2017-11-06T17:06:13.125Z,75.00
2017-11-06T17:08:40.793Z,75.20
2017-11-06T17:11:08.373Z,75.50
2017-11-06T17:13:35.896Z,76.10
2017-11-06T17:16:04.990Z,76.50
2017-11-06T17:18:32.711Z,76.40
2017-11-06T17:21:00.252Z,77.20
2017-11-06T17:23:28.546Z,76.90
2017-11-06T17:25:56.896Z,76.80
2017-11-06T17:28:24.633Z,76.80
2017-11-06T17:30:52.149Z,76.70
2017-11-06T17:33:19.682Z,76.90
2017-11-06T17:35:47.981Z,76.50
2017-11-06T17:38:15.517Z,76.50
2017-11-06T17:40:44.096Z,76.40
2017-11-06T17:43:11.627Z,76.50
2017-11-06T17:45:39.113Z,76.60
2017-11-06T17:48:06.618Z,76.50
2017-11-06T17:50:34.195Z,76.00
2017-11-06T17:53:01.841Z,75.80
2017-11-06T17:55:29.350Z,76.00
2017-11-06T17:57:57.660Z,76.10
2017-11-06T18:00:25.389Z,76.00
2017-11-06T18:02:53.743Z,76.80
2017-11-06T18:05:21.267Z,76.80
2017-11-06T18:07:48.854Z,77.10
2017-11-06T18:10:16.366Z,77.20
2017-11-06T18:12:43.942Z,77.20
2017-11-06T18:15:11.501Z,77.10
2017-11-06T18:17:39.058Z,77.20
2017-11-06T18:20:06.715Z,77.40
2017-11-06T18:22:34.274Z,77.50
2017-11-06T18:25:02.589Z,78.60
2017-11-06T18:27:30.214Z,77.90
2017-11-06T18:29:57.826Z,77.90
2017-11-06T18:32:25.443Z,78.10
2017-11-06T18:34:53.150Z,78.20
2017-11-06T18:37:20.704Z,78.30
2017-11-06T18:39:48.231Z,78.40
2017-11-06T18:42:15.744Z,78.50
2017-11-06T18:44:43.280Z,78.50
2017-11-06T18:47:10.784Z,78.70
2017-11-06T18:49:39.277Z,79.10
2017-11-06T18:52:06.821Z,79.10
2017-11-06T18:54:34.329Z,79.20
2017-11-06T18:57:01.916Z,79.50
2017-11-06T18:59:29.454Z,79.70
2017-11-06T19:01:57.223Z,79.90
2017-11-06T19:04:25.579Z,80.20
2017-11-06T19:06:53.326Z,80.10
2017-11-06T19:09:20.868Z,80.20
2017-11-06T19:11:49.144Z,80.50
2017-11-06T19:14:17.518Z,80.60
2017-11-06T19:16:45.015Z,80.50
2017-11-06T19:19:12.556Z,80.70
2017-11-06T19:21:40.862Z,80.90
2017-11-06T19:24:09.268Z,80.90
2017-11-06T19:26:36.784Z,80.90
2017-11-06T19:29:04.347Z,80.90
2017-11-06T19:31:32.256Z,81.10
2017-11-06T19:33:59.857Z,81.00
2017-11-06T19:36:28.125Z,81.40
2017-11-06T19:38:56.424Z,82.10
2017-11-06T19:41:23.982Z,81.50
2017-11-06T19:43:51.536Z,81.50
2017-11-06T19:46:19.034Z,81.40
2017-11-06T19:48:46.578Z,81.40
2017-11-06T19:51:14.261Z,81.60
2017-11-06T19:53:41.789Z,81.60
2017-11-06T19:56:09.296Z,81.80
2017-11-06T19:58:36.905Z,82.00
2017-11-06T20:01:04.421Z,82.00
2017-11-06T20:03:32.044Z,82.00
2017-11-06T20:05:59.534Z,82.00
2017-11-06T20:08:27.041Z,82.20
2017-11-06T20:10:54.558Z,82.10
2017-11-06T20:13:22.092Z,82.00
2017-11-06T20:15:49.648Z,82.00
2017-11-06T20:18:17.228Z,82.00
2017-11-06T20:20:44.762Z,82.00
2017-11-06T20:23:12.311Z,81.50
2017-11-06T20:25:39.842Z,81.50
2017-11-06T20:28:07.892Z,81.60
2017-11-06T20:30:35.459Z,81.50
2017-11-06T20:33:02.982Z,81.40
2017-11-06T20:35:30.460Z,81.50
2017-11-06T20:37:57.950Z,81.60
2017-11-06T20:40:26.572Z,81.60
2017-11-06T20:42:54.055Z,81.60
2017-11-06T20:45:21.574Z,81.80
2017-11-06T20:47:49.281Z,82.10
2017-11-06T20:50:17.452Z,82.20
2017-11-06T20:52:44.976Z,82.20
2017-11-06T20:55:13.248Z,82.40
2017-11-06T20:57:40.731Z,82.20
2017-11-06T21:00:08.249Z,82.10
2017-11-06T21:02:36.531Z,82.00
2017-11-06T21:05:04.833Z,82.10
2017-11-06T21:07:32.381Z,82.10
2017-11-06T21:09:59.939Z,82.20
2017-11-06T21:12:27.425Z,82.40
2017-11-06T21:14:54.971Z,82.50
2017-11-06T21:17:22.805Z,82.40
2017-11-06T21:19:50.314Z,82.40
2017-11-06T21:22:17.882Z,82.30
2017-11-06T21:24:45.429Z,82.10
2017-11-06T21:27:12.969Z,81.90
2017-11-06T21:29:46.193Z,81.90
2017-11-06T21:32:13.736Z,82.00
2017-11-06T21:34:41.242Z,82.20
2017-11-06T21:37:08.756Z,82.30
2017-11-06T21:39:36.259Z,82.30
2017-11-06T21:42:03.777Z,82.40
2017-11-06T21:44:31.298Z,82.10
2017-11-06T21:47:00.174Z,81.70
2017-11-06T21:49:27.685Z,81.70
2017-11-06T21:51:55.809Z,81.90
2017-11-06T21:54:24.085Z,81.80
2017-11-06T21:56:51.634Z,81.80
2017-11-06T21:59:19.157Z,81.70
2017-11-06T22:01:46.640Z,81.60
2017-11-06T22:04:14.247Z,82.00
2017-11-06T22:06:41.713Z,82.10
2017-11-06T22:09:09.284Z,82.20
2017-11-06T22:11:36.777Z,82.30
2017-11-06T22:14:04.286Z,82.30
2017-11-06T22:16:31.785Z,82.50
2017-11-06T22:18:59.283Z,82.40
2017-11-06T22:21:26.803Z,82.40
2017-11-06T22:23:54.300Z,82.10
2017-11-06T22:26:21.858Z,82.00
2017-11-06T22:28:49.388Z,82.00
2017-11-06T22:31:18.434Z,82.10
2017-11-06T22:33:46.005Z,82.10
2017-11-06T22:36:13.488Z,82.20
2017-11-06T22:38:41.157Z,82.40
2017-11-06T22:41:08.639Z,82.30
2017-11-06T22:43:36.134Z,82.40
2017-11-06T22:46:03.633Z,82.60
2017-11-06T22:48:31.139Z,82.70
2017-11-06T22:50:58.645Z,82.90
2017-11-06T22:53:26.272Z,82.90
2017-11-06T22:55:54.233Z,83.00
2017-11-06T22:58:21.725Z,82.90
2017-11-06T23:00:49.221Z,82.80
2017-11-06T23:03:17.674Z,82.70
2017-11-06T23:05:45.260Z,82.70
2017-11-06T23:08:13.144Z,82.60
2017-11-06T23:10:41.425Z,82.90
2017-11-06T23:13:08.925Z,82.80
2017-11-06T23:15:36.442Z,82.60
2017-11-06T23:18:04.731Z,82.20
2017-11-06T23:20:32.697Z,82.10
2017-11-06T23:23:00.962Z,82.10
2017-11-06T23:25:28.560Z,82.10
2017-11-06T23:27:56.081Z,82.10
2017-11-06T23:30:23.619Z,82.30
2017-11-06T23:32:51.450Z,82.40
2017-11-06T23:35:18.968Z,82.20
2017-11-06T23:37:46.504Z,82.20
2017-11-06T23:40:14.018Z,82.40
2017-11-06T23:42:41.515Z,82.00
2017-11-06T23:45:09.012Z,82.30
2017-11-06T23:47:37.437Z,82.20
2017-11-06T23:50:04.953Z,82.00
2017-11-06T23:52:33.543Z,82.20
2017-11-06T23:55:01.077Z,82.10
2017-11-06T23:57:29.477Z,82.20
2017-11-06T23:59:57.060Z,82.20
